Time;durP1;ratioP1;P1;durP2;ratioP2;P2;SDS_P1;SDS_P2;PMS_P1;PMS_P2;Temp;Humidity;BMP_temperature;BMP_pressure;BME280_temperature;BME280_humidity;BME280_pressure;Samples;Min_cycle;Max_cycle;Signal;HPM_P1;HPM_P2
2021/12/02 07:28:36;;;;;;;6.40;1.40;;;;;;;1.99;89.01;99020.47;99479;1349;600290;-78
2021/12/02 07:31:05;;;;;;;3.80;0.70;;;;;;;1.94;88.90;99022.39;102792;1316;59397;-76
2021/12/02 07:33:37;;;;;;;5.50;1.80;;;;;;;1.91;88.77;99028.00;102142;1318;60559;-76
2021/12/02 07:36:05;;;;;;;1.70;0.70;;;;;;;1.90;89.14;99032.94;101970;1322;72622;-77
2021/12/02 07:38:32;;;;;;;7.10;1.20;;;;;;;1.87;89.09;99035.25;102171;1317;72402;-77
2021/12/02 07:41:04;;;;;;;2.60;0.70;;;;;;;1.86;89.14;99033.15;102308;1324;73006;-76
2021/12/02 07:43:36;;;;;;;13.60;1.50;;;;;;;1.85;89.53;99038.98;102084;1315;62059;-77
2021/12/02 07:46:05;;;;;;;4.90;1.00;;;;;;;1.86;89.44;99041.45;102638;1315;60574;-76
2021/12/02 07:48:34;;;;;;;1.80;1.20;;;;;;;1.84;89.49;99045.83;102303;1315;73666;-76
2021/12/02 07:51:05;;;;;;;9.10;1.40;;;;;;;1.83;89.35;99049.12;102452;1315;72582;-76
2021/12/02 07:53:33;;;;;;;7.70;1.50;;;;;;;1.82;89.37;99057.04;102232;1316;72912;-75
2021/12/02 07:56:03;;;;;;;3.50;1.20;;;;;;;1.82;89.15;99064.19;102241;1317;61664;-75
2021/12/02 07:58:31;;;;;;;2.80;0.80;;;;;;;1.81;89.36;99067.41;103248;1314;60341;-76
2021/12/02 08:01:00;;;;;;;6.70;1.90;;;;;;;1.80;89.44;99069.31;102124;1315;73012;-76
2021/12/02 08:03:27;;;;;;;5.40;1.90;;;;;;;1.80;89.50;99065.75;102085;1315;70351;-75
2021/12/02 08:05:53;;;;;;;6.70;1.70;;;;;;;1.80;89.37;99068.52;102109;1316;72914;-76
2021/12/02 08:08:20;;;;;;;10.30;2.50;;;;;;;1.83;89.42;99071.28;101923;1316;62562;-77
2021/12/02 08:10:51;;;;;;;5.20;1.80;;;;;;;1.83;89.64;99074.52;102351;1316;60524;-77
2021/12/02 08:13:25;;;;;;;3.80;1.50;;;;;;;1.86;89.71;99075.09;102156;1317;74930;-77
2021/12/02 08:15:51;;;;;;;8.00;1.90;;;;;;;1.88;89.95;99081.89;102192;1316;72640;-78
2021/12/02 08:18:18;;;;;;;7.00;1.80;;;;;;;1.90;89.96;99082.86;102235;1320;60475;-78
2021/12/02 08:20:45;;;;;;;8.10;1.90;;;;;;;1.93;90.08;99084.61;102552;1316;59684;-79
2021/12/02 08:23:11;;;;;;;3.60;1.40;;;;;;;1.97;89.93;99091.92;102477;1317;61051;-78
2021/12/02 08:25:38;;;;;;;8.70;1.70;;;;;;;2.00;89.39;99101.19;102366;1316;74613;-78
2021/12/02 08:28:04;;;;;;;9.00;3.20;;;;;;;2.02;89.21;99103.42;102531;1316;59721;-79
2021/12/02 08:30:34;;;;;;;4.30;1.90;;;;;;;2.05;89.15;99105.11;102572;1317;73002;-78
2021/12/02 08:33:02;;;;;;;10.50;2.30;;;;;;;2.07;88.82;99113.23;102356;1316;62504;-79
2021/12/02 08:35:28;;;;;;;11.50;2.40;;;;;;;2.12;88.64;99117.07;102505;1316;61994;-78
2021/12/02 08:38:08;;;;;;;8.70;2.00;;;;;;;2.18;88.64;99119.60;102256;1316;73250;-77
2021/12/02 08:40:36;;;;;;;5.80;1.60;;;;;;;2.21;88.48;99123.08;102011;1316;71543;-76
2021/12/02 08:43:08;;;;;;;5.30;1.90;;;;;;;2.22;88.23;99128.77;102415;1316;74203;-76
2021/12/02 08:45:36;;;;;;;8.00;1.50;;;;;;;2.21;87.64;99131.79;102318;1315;61321;-76
2021/12/02 08:48:04;;;;;;;5.00;1.50;;;;;;;2.24;87.61;99130.83;102062;1316;60310;-76
2021/12/02 08:50:32;;;;;;;7.70;2.30;;;;;;;2.27;87.18;99131.92;102077;1319;74327;-78
2021/12/02 08:53:00;;;;;;;5.20;1.40;;;;;;;2.31;87.06;99127.88;102230;1316;72631;-78
2021/12/02 08:55:30;;;;;;;4.00;1.30;;;;;;;2.31;86.76;99132.06;102080;1316;73037;-76
2021/12/02 08:57:59;;;;;;;7.30;2.30;;;;;;;2.31;87.04;99137.77;102096;1316;60405;-77
2021/12/02 09:00:33;;;;;;;2.90;1.20;;;;;;;2.32;86.48;99146.16;102433;1316;60197;-77
2021/12/02 09:03:05;;;;;;;3.10;1.50;;;;;;;2.34;86.66;99152.41;102192;1316;73075;-78
2021/12/02 09:05:32;;;;;;;4.20;2.50;;;;;;;2.38;86.44;99152.91;102304;1316;71410;-78
2021/12/02 09:07:59;;;;;;;10.90;2.60;;;;;;;2.42;86.26;99153.71;102049;1316;74003;-77
2021/12/02 09:10:27;;;;;;;5.80;2.20;;;;;;;2.46;86.43;99155.75;102027;1318;62444;-77
2021/12/02 09:12:55;;;;;;;7.00;2.60;;;;;;;2.50;86.23;99155.16;102122;1316;61663;-80
2021/12/02 09:15:23;;;;;;;9.10;2.40;;;;;;;2.52;85.60;99156.83;102651;1319;73465;-78
2021/12/02 09:17:53;;;;;;;6.20;2.10;;;;;;;2.52;85.09;99160.33;102417;1316;71090;-77
2021/12/02 09:20:20;;;;;;;4.50;1.80;;;;;;;2.52;84.69;99160.04;102472;1316;73583;-76
2021/12/02 09:22:47;;;;;;;5.90;1.80;;;;;;;2.50;84.20;99159.35;102043;1317;60992;-76
2021/12/02 09:25:16;;;;;;;8.70;2.60;;;;;;;2.51;84.33;99162.88;101650;1316;60678;-77
2021/12/02 09:27:45;;;;;;;8.60;1.80;;;;;;;2.52;84.15;99162.43;102117;1316;74333;-77
2021/12/02 09:30:13;;;;;;;7.60;2.30;;;;;;;2.51;83.78;99169.95;102018;1317;72422;-77
2021/12/02 09:32:40;;;;;;;4.70;1.60;;;;;;;2.49;83.75;99172.17;101994;1315;74408;-77
2021/12/02 09:35:08;;;;;;;5.80;1.70;;;;;;;2.46;83.99;99172.17;102007;1316;60222;-75
2021/12/02 09:37:36;;;;;;;7.90;2.00;;;;;;;2.45;84.37;99172.57;102177;1318;62147;-78
2021/12/02 09:40:07;;;;;;;7.10;1.80;;;;;;;2.48;84.36;99172.27;102163;1316;73075;-76
2021/12/02 09:42:34;;;;;;;3.40;1.50;;;;;;;2.51;83.83;99173.88;102168;1316;72400;-76
2021/12/02 09:45:02;;;;;;;6.40;1.70;;;;;;;2.54;83.46;99172.52;101977;1317;73900;-77
2021/12/02 09:47:34;;;;;;;2.40;1.30;;;;;;;2.54;83.49;99172.48;101885;1318;60579;-76
2021/12/02 09:50:06;;;;;;;7.00;2.20;;;;;;;2.55;83.53;99173.27;102219;1316;60198;-76
2021/12/02 09:52:36;;;;;;;11.10;2.40;;;;;;;2.58;84.01;99174.19;102217;1317;73398;-79
2021/12/02 09:55:11;;;;;;;16.70;3.10;;;;;;;2.61;83.93;99176.36;102383;1321;71445;-76
2021/12/02 09:57:42;;;;;;;8.50;2.80;;;;;;;2.64;84.15;99179.14;102323;1316;73970;-76
2021/12/02 10:00:16;;;;;;;8.40;2.30;;;;;;;2.70;84.46;99176.83;101679;1317;61563;-76
2021/12/02 10:02:52;;;;;;;4.60;1.90;;;;;;;2.71;84.62;99174.74;101929;1316;61677;-78
2021/12/02 10:05:36;;;;;;;8.30;4.00;;;;;;;2.74;84.48;99173.46;101913;1318;73346;-76
2021/12/02 10:08:06;;;;;;;4.70;2.70;;;;;;;2.73;84.29;99174.38;101617;1318;72466;-79
2021/12/02 10:10:49;;;;;;;4.00;1.50;;;;;;;2.75;84.90;99170.68;102265;1319;72980;-76
2021/12/02 10:19:12;;;;;;;9.40;2.10;;;;;;;2.90;85.05;99165.82;102064;1317;74564;-76
2021/12/02 10:21:50;;;;;;;9.30;2.40;;;;;;;2.96;84.76;99175.28;102220;1312;70666;-79
2021/12/02 10:24:24;;;;;;;5.70;3.00;;;;;;;2.99;84.17;99179.34;102126;1317;72890;-76
2021/12/02 10:27:00;;;;;;;6.80;2.70;;;;;;;3.00;84.20;99180.98;102347;1316;62820;-77
2021/12/02 10:29:46;;;;;;;5.20;2.50;;;;;;;2.99;83.70;99187.33;102300;1316;60558;-77
2021/12/02 10:32:13;;;;;;;3.30;2.00;;;;;;;3.00;83.80;99193.56;102524;1315;74111;-77
2021/12/02 10:35:03;;;;;;;4.90;2.40;;;;;;;3.03;84.14;99194.25;102522;1316;59718;-77
2021/12/02 10:37:39;;;;;;;5.20;1.80;;;;;;;3.06;83.43;99193.92;102182;1316;72858;-77
2021/12/02 10:40:12;;;;;;;3.70;2.00;;;;;;;3.04;82.11;99196.98;101920;1323;63195;-77
2021/12/02 10:42:42;;;;;;;3.70;1.50;;;;;;;3.05;81.22;99195.99;102179;1317;60625;-76
2021/12/02 10:45:28;;;;;;;3.50;1.80;;;;;;;3.09;81.54;99203.05;102119;1315;74525;-76
2021/12/02 10:47:56;;;;;;;4.20;1.90;;;;;;;3.15;81.20;99198.73;102163;1316;72114;-76
2021/12/02 10:50:24;;;;;;;2.80;2.10;;;;;;;3.20;80.90;99204.35;102205;1316;72939;-76
2021/12/02 10:52:52;;;;;;;4.90;1.40;;;;;;;3.22;81.02;99207.04;102193;1317;61154;-75
2021/12/02 10:55:23;;;;;;;5.20;1.40;;;;;;;3.34;81.19;99207.64;102176;1316;60337;-77
2021/12/02 10:57:56;;;;;;;3.00;1.30;;;;;;;3.51;80.73;99207.48;102078;1316;73399;-78
2021/12/02 11:00:25;;;;;;;11.60;2.70;;;;;;;3.66;80.12;99207.36;102284;1316;71394;-76
2021/12/02 11:02:58;;;;;;;8.40;2.50;;;;;;;3.77;79.31;99205.84;102230;1316;74152;-76
2021/12/02 11:05:32;;;;;;;3.70;2.20;;;;;;;3.90;78.80;99208.89;102145;1316;60524;-78
2021/12/02 11:08:07;;;;;;;4.10;1.30;;;;;;;3.98;78.13;99208.48;102145;1316;61762;-78
2021/12/02 11:10:40;;;;;;;3.10;1.10;;;;;;;4.06;77.95;99213.33;102062;1317;73038;-78
2021/12/02 11:13:10;;;;;;;7.10;1.70;;;;;;;4.15;77.26;99215.04;101916;1320;72497;-78
2021/12/02 11:15:39;;;;;;;4.90;2.00;;;;;;;4.16;76.99;99213.49;101971;1320;74145;-77
2021/12/02 11:18:09;;;;;;;5.40;1.40;;;;;;;4.23;77.38;99217.27;101962;1317;59708;-75
2021/12/02 11:20:42;;;;;;;3.90;1.70;;;;;;;4.36;76.06;99217.93;102051;1317;60618;-76
2021/12/02 11:23:15;;;;;;;3.50;1.50;;;;;;;4.47;75.75;99218.21;102155;1315;74575;-75
2021/12/02 11:25:59;;;;;;;4.70;2.20;;;;;;;4.57;75.07;99215.96;102124;1316;72404;-78
2021/12/02 11:28:29;;;;;;;11.10;2.10;;;;;;;4.62;73.70;99224.11;101987;1317;73986;-79
2021/12/02 11:30:58;;;;;;;5.60;1.40;;;;;;;4.77;73.67;99225.10;102367;1317;61206;-77
2021/12/02 11:33:35;;;;;;;3.70;1.20;;;;;;;4.89;73.01;99228.62;102704;1307;60595;-77
2021/12/02 11:36:04;;;;;;;3.90;1.50;;;;;;;5.22;72.53;99230.77;101972;1317;72882;-76
2021/12/02 11:38:33;;;;;;;3.20;1.20;;;;;;;5.49;71.58;99230.52;102040;1312;72714;-77
2021/12/02 11:41:04;;;;;;;4.80;2.00;;;;;;;5.60;69.65;99233.41;102094;1317;73426;-77
2021/12/02 11:43:34;;;;;;;5.40;1.50;;;;;;;5.49;68.76;99242.75;102040;1316;61019;-76
2021/12/02 11:46:04;;;;;;;9.80;3.00;;;;;;;5.39;69.52;99238.13;101970;1316;61635;-76
2021/12/02 11:48:39;;;;;;;3.40;1.00;;;;;;;5.32;70.34;99236.19;101993;1316;74140;-76
2021/12/02 11:51:09;;;;;;;1.40;0.60;;;;;;;5.26;70.90;99238.89;102292;1316;71503;-76
2021/12/02 11:53:36;;;;;;;4.70;1.60;;;;;;;5.20;71.21;99237.91;101827;1317;74198;-76
2021/12/02 11:56:09;;;;;;;4.00;1.20;;;;;;;5.11;71.10;99244.33;101945;1317;61540;-76
2021/12/02 11:58:36;;;;;;;2.30;1.00;;;;;;;5.05;72.19;99243.79;102305;1316;60657;-81
2021/12/02 12:01:04;;;;;;;3.40;1.00;;;;;;;4.91;71.69;99245.75;102272;1319;75145;-77
2021/12/02 12:03:31;;;;;;;1.80;1.00;;;;;;;4.81;72.16;99244.55;102797;1316;71484;-79
2021/12/02 12:06:36;;;;;;;4.70;1.20;;;;;;;4.75;71.95;99250.01;102550;1316;60606;-79
2021/12/02 12:09:11;;;;;;;2.50;0.90;;;;;;;4.87;72.18;99250.73;101630;1323;60808;-79
2021/12/02 12:11:43;;;;;;;;;;;;;;;4.90;72.33;99256.36;102134;1318;61768;-79
2021/12/02 12:14:13;;;;;;;1.80;0.70;;;;;;;4.96;72.02;99260.66;102479;1323;75542;-80
2021/12/02 12:16:50;;;;;;;5.70;1.40;;;;;;;5.08;71.04;99257.17;102417;1318;72517;-78
2021/12/02 12:19:30;;;;;;;1.60;0.60;;;;;;;5.21;71.23;99256.80;102402;1319;73885;-78
2021/12/02 12:22:02;;;;;;;2.90;0.90;;;;;;;5.31;70.78;99261.30;102480;1318;60751;-78
2021/12/02 12:24:49;;;;;;;4.00;1.20;;;;;;;5.47;70.80;99259.17;102440;1319;60679;-77
2021/12/02 12:27:21;;;;;;;2.50;1.40;;;;;;;6.05;70.39;99262.59;101982;1318;74677;-77
2021/12/02 12:30:19;;;;;;;2.40;1.10;;;;;;;7.24;66.84;99270.58;101989;1319;71249;-77
2021/12/02 12:32:53;;;;;;;2.50;1.40;;;;;;;8.28;63.87;99268.41;101960;1318;73207;-77
2021/12/02 12:35:48;;;;;;;4.20;1.50;;;;;;;8.71;59.57;99270.75;102047;1318;60580;-76
2021/12/02 12:38:27;;;;;;;2.20;1.40;;;;;;;9.36;57.22;99269.44;102008;1323;62527;-77
2021/12/02 12:41:01;;;;;;;3.80;1.50;;;;;;;9.75;56.96;99273.41;102537;1316;74372;-77
2021/12/02 12:43:38;;;;;;;2.40;1.10;;;;;;;9.70;56.15;99276.55;102528;1316;72460;-77
2021/12/02 12:46:11;;;;;;;2.20;0.80;;;;;;;9.32;54.90;99280.11;102517;1316;73957;-77
2021/12/02 12:48:39;;;;;;;5.00;2.40;;;;;;;8.79;56.88;99282.53;102344;1316;60632;-76
2021/12/02 12:51:14;;;;;;;6.60;1.40;;;;;;;8.33;58.31;99279.86;102226;1316;60494;-78
2021/12/02 12:53:43;;;;;;;4.40;1.80;;;;;;;7.69;59.95;99286.73;102210;1315;75105;-80
2021/12/02 12:56:14;;;;;;;7.30;1.40;;;;;;;7.16;61.64;99286.10;102400;1316;70403;-80
2021/12/02 12:58:52;;;;;;;4.70;1.80;;;;;;;6.69;63.56;99292.05;102735;1314;74065;-78
2021/12/02 13:04:03;;;;;;;3.40;1.10;;;;;;;5.82;66.69;99294.55;103581;1300;58693;-81
2021/12/02 13:06:33;;;;;;;2.00;0.60;;;;;;;5.54;68.47;99297.77;103270;1304;75760;-80
2021/12/02 13:09:02;;;;;;;2.80;1.10;;;;;;;5.29;69.83;99302.41;102876;1316;71128;-78
2021/12/02 13:11:32;;;;;;;2.60;0.80;;;;;;;5.04;70.50;99305.39;103078;1316;73156;-78
2021/12/02 13:14:04;;;;;;;2.20;0.70;;;;;;;4.73;69.77;99306.27;102984;1317;60775;-79
2021/12/02 13:16:37;;;;;;;1.90;1.10;;;;;;;4.46;70.76;99307.04;103119;1297;60544;-79
2021/12/02 13:19:13;;;;;;;4.20;0.80;;;;;;;4.27;71.44;99315.03;102895;1316;75127;-78
2021/12/02 13:21:41;;;;;;;1.30;0.50;;;;;;;4.11;72.13;99326.33;103249;1315;72534;-79
2021/12/02 13:24:34;;;;;;;2.10;0.80;;;;;;;3.96;73.19;99332.22;102910;1313;72837;-78
2021/12/02 13:27:03;;;;;;;3.50;0.70;;;;;;;3.80;74.05;99338.10;102991;1316;60512;-80
2021/12/02 13:29:33;;;;;;;2.10;1.10;;;;;;;3.69;74.38;99342.61;103946;1303;61873;-79
2021/12/02 13:32:06;;;;;;;3.10;1.30;;;;;;;3.58;74.63;99343.99;104108;1298;74273;-79
2021/12/02 13:34:33;;;;;;;3.60;1.20;;;;;;;3.49;75.34;99346.65;103449;1303;72470;-79
2021/12/02 13:37:03;;;;;;;3.00;1.50;;;;;;;3.46;75.67;99347.52;103019;1316;72968;-79
2021/12/02 13:39:38;;;;;;;2.30;1.20;;;;;;;3.41;76.36;99346.78;103482;1319;61442;-78
2021/12/02 13:42:10;;;;;;;5.00;2.00;;;;;;;3.37;77.19;99350.39;103127;1306;60698;-80
2021/12/02 13:44:45;;;;;;;6.80;2.00;;;;;;;3.31;77.57;99354.38;103131;1315;74327;-80
2021/12/02 13:47:27;;;;;;;4.70;2.30;;;;;;;3.20;77.49;99357.20;103032;1315;71829;-79
2021/12/02 13:49:57;;;;;;;3.40;1.70;;;;;;;3.13;77.29;99363.89;102718;1303;73198;-80
2021/12/02 13:52:30;;;;;;;6.80;2.40;;;;;;;3.09;77.31;99368.86;102843;1316;61425;-79
2021/12/02 13:55:15;;;;;;;5.10;2.50;;;;;;;3.06;77.24;99368.25;103299;1316;61841;-77
2021/12/02 13:57:50;;;;;;;8.70;2.50;;;;;;;3.03;77.57;99372.42;102782;1313;75265;-77
2021/12/02 14:00:31;;;;;;;5.20;2.10;;;;;;;2.97;78.15;99374.76;102647;1316;72466;-80
2021/12/02 14:03:16;;;;;;;6.30;2.60;;;;;;;2.90;78.44;99381.15;102861;1316;72964;-79
2021/12/02 14:05:48;;;;;;;5.80;2.50;;;;;;;2.82;78.54;99384.78;102801;1316;61819;-79
2021/12/02 14:08:17;;;;;;;3.90;1.90;;;;;;;2.77;79.33;99391.08;102807;1315;60832;-79
2021/12/02 14:10:45;;;;;;;4.80;2.20;;;;;;;2.74;79.56;99395.48;102877;1316;75466;-80
2021/12/02 14:13:17;;;;;;;6.10;2.00;;;;;;;2.73;80.10;99398.52;102808;1316;73049;-80
2021/12/02 14:15:47;;;;;;;3.40;2.00;;;;;;;2.73;80.40;99400.45;102759;1316;73711;-80
2021/12/02 14:18:20;;;;;;;5.40;1.60;;;;;;;2.72;80.71;99399.83;102694;1316;61438;-79
2021/12/02 14:21:11;;;;;;;4.90;2.70;;;;;;;2.71;81.15;99404.34;102960;1312;61653;-78
2021/12/02 14:23:40;;;;;;;5.90;2.20;;;;;;;2.68;81.68;99416.68;102675;1315;75328;-77
2021/12/02 14:26:10;;;;;;;4.70;2.20;;;;;;;2.66;81.94;99414.78;102246;1315;72691;-77
2021/12/02 14:28:51;;;;;;;6.50;2.70;;;;;;;2.61;82.05;99422.59;102435;1315;74221;-77
2021/12/02 14:31:36;;;;;;;5.20;3.30;;;;;;;2.57;82.01;99421.96;102184;1315;61541;-76
2021/12/02 14:34:09;;;;;;;7.60;2.70;;;;;;;2.51;82.67;99427.84;102227;1316;60674;-77
2021/12/02 14:36:44;;;;;;;5.40;3.00;;;;;;;2.43;83.14;99432.42;102203;1315;75475;-77
2021/12/02 14:39:13;;;;;;;6.80;1.70;;;;;;;2.36;83.85;99435.05;102263;1316;71391;-77
2021/12/02 14:41:44;;;;;;;4.90;2.20;;;;;;;2.30;84.44;99439.52;102326;1316;73939;-77
2021/12/02 14:44:16;;;;;;;6.10;2.50;;;;;;;2.26;84.47;99441.32;102250;1316;61488;-77
2021/12/02 14:46:45;;;;;;;4.30;1.80;;;;;;;2.22;83.97;99447.92;102438;1314;61427;-79
2021/12/02 14:49:40;;;;;;;6.70;1.60;;;;;;;2.19;82.95;99448.42;102786;1316;75757;-77
2021/12/02 14:52:11;;;;;;;2.60;1.30;;;;;;;2.16;80.98;99451.39;102179;1317;72613;-76
2021/12/02 14:54:52;;;;;;;2.80;0.90;;;;;;;2.10;75.58;99463.80;102131;1319;73976;-76
2021/12/02 14:57:21;;;;;;;1.60;0.70;;;;;;;2.06;74.27;99467.13;102287;1316;60581;-77
2021/12/02 15:00:10;;;;;;;1.80;0.60;;;;;;;2.01;72.98;99470.73;102357;1315;60642;-77
2021/12/02 15:02:47;;;;;;;3.00;0.80;;;;;;;1.95;71.94;99473.73;102689;1317;75379;-80
2021/12/02 15:05:19;;;;;;;5.40;0.70;;;;;;;1.90;71.14;99474.86;103142;1303;70670;-78
2021/12/02 15:07:52;;;;;;;2.30;0.60;;;;;;;1.85;70.55;99479.64;102367;1315;73973;-80
2021/12/02 15:10:22;;;;;;;4.70;0.70;;;;;;;1.81;70.49;99483.14;102184;1315;62639;-78
2021/12/02 15:12:51;;;;;;;1.80;0.40;;;;;;;1.77;70.82;99491.38;102227;1316;60524;-78
2021/12/02 15:15:23;;;;;;;1.00;0.50;;;;;;;1.71;71.08;99495.83;103170;1303;74172;-78
2021/12/02 15:17:56;;;;;;;1.80;0.50;;;;;;;1.62;70.60;99501.73;102751;1316;71390;-78
2021/12/02 15:20:37;;;;;;;1.40;0.50;;;;;;;1.55;70.88;99501.49;102706;1316;74148;-79
2021/12/02 15:23:10;;;;;;;1.60;0.70;;;;;;;1.48;70.38;99509.35;102736;1315;61169;-79
2021/12/02 15:25:42;;;;;;;1.60;1.00;;;;;;;1.41;70.95;99514.14;102797;1316;61170;-79
2021/12/02 15:28:30;;;;;;;4.40;0.90;;;;;;;1.37;71.66;99514.38;102680;1316;74304;-78
2021/12/02 15:31:10;;;;;;;3.30;0.50;;;;;;;1.31;71.81;99515.25;102719;1316;72569;-77
2021/12/02 15:33:57;;;;;;;1.00;0.50;;;;;;;1.27;72.09;99517.56;102751;1316;74344;-78
2021/12/02 15:36:31;;;;;;;2.40;0.50;;;;;;;1.22;71.18;99523.40;102345;1315;61234;-75
2021/12/02 15:38:58;;;;;;;2.30;0.50;;;;;;;1.20;71.15;99531.41;102238;1319;60711;-79
2021/12/02 15:41:27;;;;;;;1.20;0.30;;;;;;;1.18;70.81;99539.48;102286;1315;670471;-79
2021/12/02 15:44:03;;;;;;;6.00;0.70;;;;;;;1.15;71.11;99548.63;102861;1316;71553;-78
2021/12/02 15:46:40;;;;;;;3.70;0.70;;;;;;;1.10;71.37;99550.08;102835;1314;74560;-78
2021/12/02 15:49:10;;;;;;;1.40;0.50;;;;;;;1.06;71.74;99559.77;102825;1316;60628;-78
2021/12/02 15:51:38;;;;;;;4.60;0.50;;;;;;;0.99;71.52;99569.10;102327;1316;61308;-76
2021/12/02 15:54:08;;;;;;;0.90;0.50;;;;;;;0.93;71.76;99572.98;102248;1315;75914;-75
2021/12/02 15:56:36;;;;;;;2.40;0.30;;;;;;;0.86;71.81;99581.24;102270;1316;71160;-77
2021/12/02 15:59:03;;;;;;;1.50;0.30;;;;;;;0.80;72.06;99584.86;102266;1316;72715;-77
2021/12/02 16:01:36;;;;;;;0.70;0.40;;;;;;;0.73;72.05;99588.64;102287;1316;60985;-78
2021/12/02 16:04:12;;;;;;;1.50;0.50;;;;;;;0.66;72.40;99595.92;102233;1316;61487;-78
2021/12/02 16:09:40;;;;;;;2.30;0.50;;;;;;;0.55;73.07;99607.03;102134;1316;72414;-78
2021/12/02 16:14:54;;;;;;;2.40;0.70;;;;;;;0.44;73.48;99619.50;102188;1315;60851;-76
2021/12/02 16:17:21;;;;;;;4.70;0.90;;;;;;;0.38;73.53;99624.27;102178;1316;61408;-77
2021/12/02 16:19:48;;;;;;;1.40;0.70;;;;;;;0.34;73.65;99630.54;101904;1318;60674;-77
2021/12/02 16:22:20;;;;;;;2.70;0.70;;;;;;;0.30;73.93;99633.72;102215;1315;72384;-78
2021/12/02 16:24:52;;;;;;;3.00;1.00;;;;;;;0.24;74.22;99643.45;102450;1317;73137;-76
2021/12/02 16:27:20;;;;;;;4.00;0.60;;;;;;;0.18;74.43;99643.09;102374;1315;60566;-75
2021/12/02 16:29:47;;;;;;;3.20;1.10;;;;;;;0.13;74.59;99647.42;101771;1319;60857;-75
2021/12/02 16:32:14;;;;;;;4.10;1.70;;;;;;;0.09;74.83;99657.63;102203;1316;75354;-76
2021/12/02 16:34:42;;;;;;;2.70;1.00;;;;;;;0.07;74.97;99664.67;102247;1316;71524;-76
2021/12/02 16:37:09;;;;;;;4.40;1.00;;;;;;;0.02;75.21;99668.04;102246;1315;73357;-77
2021/12/02 16:39:36;;;;;;;5.80;1.20;;;;;;;-0.03;75.51;99674.50;101782;1320;61043;-77
2021/12/02 16:42:05;;;;;;;2.60;1.00;;;;;;;-0.08;75.84;99679.60;102124;1315;60683;-76
2021/12/02 16:44:33;;;;;;;3.30;1.40;;;;;;;-0.13;76.04;99688.77;102141;1318;74081;-78
2021/12/02 16:46:59;;;;;;;4.70;1.40;;;;;;;-0.18;76.39;99689.55;101963;1319;72370;-76
2021/12/02 16:49:27;;;;;;;3.10;1.00;;;;;;;-0.24;76.74;99691.21;102033;1319;73871;-76
2021/12/02 16:51:55;;;;;;;2.10;1.10;;;;;;;-0.27;77.10;99694.23;102099;1315;60539;-77
2021/12/02 16:54:25;;;;;;;3.40;0.70;;;;;;;-0.29;77.26;99701.59;102234;1315;61581;-76
2021/12/02 16:56:51;;;;;;;3.70;1.00;;;;;;;-0.32;77.55;99704.80;101990;1315;75087;-77
2021/12/02 16:59:18;;;;;;;4.40;1.20;;;;;;;-0.35;77.78;99708.49;102229;1315;60619;-77
2021/12/02 17:01:44;;;;;;;3.00;1.20;;;;;;;-0.36;78.15;99712.56;102233;1316;72963;-77
2021/12/02 17:04:11;;;;;;;6.30;2.60;;;;;;;-0.38;78.18;99714.52;102217;1316;61448;-76
2021/12/02 17:06:39;;;;;;;4.10;1.60;;;;;;;-0.40;78.48;99716.05;102132;1316;60616;-76
2021/12/02 17:09:05;;;;;;;2.00;1.00;;;;;;;-0.43;78.72;99716.11;102316;1315;74368;-77
2021/12/02 17:11:32;;;;;;;3.80;1.10;;;;;;;-0.46;79.09;99719.98;102250;1315;60393;-77
2021/12/02 17:13:58;;;;;;;3.30;0.80;;;;;;;-0.50;79.50;99727.77;102111;1315;60634;-77
2021/12/02 17:16:25;;;;;;;5.70;1.70;;;;;;;-0.54;79.66;99730.91;102272;1315;60708;-77
2021/12/02 17:18:54;;;;;;;3.90;0.70;;;;;;;-0.58;80.07;99738.93;102256;1316;62613;-77
2021/12/02 17:21:21;;;;;;;2.00;1.00;;;;;;;-0.61;80.33;99748.69;102315;1315;74367;-77
2021/12/02 17:23:49;;;;;;;4.00;1.80;;;;;;;-0.63;80.69;99752.47;102240;1315;71533;-76
2021/12/02 17:26:17;;;;;;;2.30;1.10;;;;;;;-0.65;80.98;99755.40;102193;1316;72654;-76
2021/12/02 17:28:49;;;;;;;2.20;1.20;;;;;;;-0.65;81.14;99761.20;102095;1316;60835;-78
2021/12/02 17:31:19;;;;;;;4.70;0.80;;;;;;;-0.67;81.26;99763.26;102533;1316;60560;-77
2021/12/02 17:33:47;;;;;;;5.90;0.90;;;;;;;-0.68;81.51;99775.28;102469;1312;74166;-78
2021/12/02 17:36:14;;;;;;;3.20;0.80;;;;;;;-0.68;81.72;99781.55;102181;1316;71049;-76
2021/12/02 17:38:41;;;;;;;1.30;0.70;;;;;;;-0.70;81.94;99786.05;102129;1316;74232;-76
2021/12/02 17:41:08;;;;;;;4.40;0.70;;;;;;;-0.71;81.96;99789.23;101924;1319;61590;-77
2021/12/02 17:43:35;;;;;;;2.20;0.90;;;;;;;-0.72;81.98;99793.84;102201;1315;60603;-76
2021/12/02 17:46:02;;;;;;;4.00;1.10;;;;;;;-0.72;82.04;99800.11;101731;1315;75184;-77
2021/12/02 17:48:30;;;;;;;3.90;1.40;;;;;;;-0.73;82.13;99800.17;102332;1314;70449;-77
2021/12/02 17:50:59;;;;;;;4.70;1.30;;;;;;;-0.74;82.12;99802.77;101964;1319;73672;-78
2021/12/02 17:53:31;;;;;;;3.60;1.20;;;;;;;-0.76;82.02;99805.84;102494;1314;60602;-77
2021/12/02 17:55:59;;;;;;;3.30;0.70;;;;;;;-0.79;82.19;99808.34;102433;1316;61591;-76
2021/12/02 17:58:26;;;;;;;2.40;1.10;;;;;;;-0.83;82.43;99811.23;102325;1315;60619;-77
2021/12/02 18:00:53;;;;;;;2.00;0.90;;;;;;;-0.86;83.27;99824.14;102262;1315;71823;-76
2021/12/02 18:03:20;;;;;;;4.40;0.90;;;;;;;-0.89;83.16;99827.16;102508;1315;72797;-76
2021/12/02 18:05:48;;;;;;;1.40;0.80;;;;;;;-0.92;83.27;99833.98;102260;1315;60490;-76
2021/12/02 18:08:14;;;;;;;4.90;1.60;;;;;;;-0.94;83.38;99836.78;102237;1315;61212;-76
2021/12/02 18:10:43;;;;;;;5.20;1.30;;;;;;;-0.97;83.34;99842.04;102082;1316;60584;-76
2021/12/02 18:13:10;;;;;;;4.90;0.90;;;;;;;-1.02;83.34;99842.41;102197;1315;73019;-76
2021/12/02 18:15:37;;;;;;;2.80;1.30;;;;;;;-1.05;83.67;99852.54;102301;1316;72940;-77
2021/12/02 18:18:09;;;;;;;12.30;3.30;;;;;;;-1.07;84.12;99852.55;102304;1316;60838;-77
2021/12/02 18:20:36;;;;;;;9.50;3.10;;;;;;;-1.11;84.63;99858.91;102071;1316;60763;-76
2021/12/02 18:23:04;;;;;;;11.00;2.70;;;;;;;-1.12;85.50;99864.41;102313;1315;74064;-78
2021/12/02 18:25:31;;;;;;;11.30;3.70;;;;;;;-1.13;85.58;99868.83;102609;1316;73180;-78
2021/12/02 18:28:00;;;;;;;28.30;8.60;;;;;;;-1.16;85.55;99869.78;102702;1316;73887;-77
2021/12/02 18:30:29;;;;;;;12.80;4.60;;;;;;;-1.19;85.43;99868.60;102758;1316;62657;-77
2021/12/02 18:32:57;;;;;;;19.20;4.80;;;;;;;-1.24;85.54;99876.44;102746;1315;60370;-77
2021/12/02 18:35:23;;;;;;;10.90;3.60;;;;;;;-1.28;85.62;99878.07;102670;1314;75104;-78
2021/12/02 18:37:55;;;;;;;4.10;1.90;;;;;;;-1.31;85.55;99884.91;102682;1316;71884;-78
2021/12/02 18:40:22;;;;;;;4.20;1.40;;;;;;;-1.32;85.81;99886.58;102490;1315;72917;-78
2021/12/02 18:42:49;;;;;;;2.50;1.00;;;;;;;-1.33;86.12;99890.11;101963;1318;61245;-76
2021/12/02 18:45:16;;;;;;;3.40;1.60;;;;;;;-1.34;86.28;99892.80;102282;1316;60402;-77
2021/12/02 18:47:42;;;;;;;6.00;2.10;;;;;;;-1.37;86.33;99893.94;102299;1317;74089;-76
2021/12/02 18:50:10;;;;;;;2.20;1.00;;;;;;;-1.41;86.69;99889.54;102254;1316;71533;-77
2021/12/02 18:52:37;;;;;;;5.80;2.40;;;;;;;-1.44;87.05;99888.35;102392;1315;71912;-78
2021/12/02 18:55:05;;;;;;;2.70;1.20;;;;;;;-1.45;87.43;99888.80;102812;1315;60485;-79
2021/12/02 18:57:33;;;;;;;5.90;1.60;;;;;;;-1.47;87.72;99884.75;102548;1319;61586;-78
2021/12/02 19:00:07;;;;;;;8.60;1.10;;;;;;;-1.47;87.80;99882.35;102744;1316;75441;-79
2021/12/02 19:02:39;;;;;;;4.20;1.10;;;;;;;-1.46;88.06;99885.27;102938;1316;71433;-78
2021/12/02 19:05:16;;;;;;;4.70;1.40;;;;;;;-1.47;87.72;99888.42;102829;1315;72582;-78
2021/12/02 19:26:22;;;;;;;5.50;1.70;;;;;;;-1.55;89.17;99908.16;102319;1315;75335;-78
2021/12/02 19:28:51;;;;;;;4.50;1.90;;;;;;;-1.57;89.30;99914.54;102209;1316;73027;-78
2021/12/02 19:31:18;;;;;;;5.50;2.00;;;;;;;-1.59;89.19;99912.40;102283;1316;71914;-77
2021/12/02 19:33:45;;;;;;;6.10;1.70;;;;;;;-1.61;89.48;99914.52;102803;1314;61483;-79
2021/12/02 19:36:14;;;;;;;5.40;1.60;;;;;;;-1.62;89.57;99918.23;102927;1315;61878;-76
2021/12/02 19:38:42;;;;;;;6.20;2.30;;;;;;;-1.65;89.47;99919.10;102335;1315;73557;-78
2021/12/02 19:41:12;;;;;;;7.30;2.60;;;;;;;-1.68;89.64;99919.67;102327;1315;72892;-77
2021/12/02 19:43:46;;;;;;;6.30;2.40;;;;;;;-1.71;89.81;99918.47;102991;1315;74173;-77
2021/12/02 19:46:19;;;;;;;8.90;2.50;;;;;;;-1.73;90.17;99911.35;102555;1315;60983;-76
2021/12/02 19:48:46;;;;;;;5.00;2.60;;;;;;;-1.75;90.25;99914.98;102444;1313;61657;-76
2021/12/02 19:51:14;;;;;;;8.80;3.40;;;;;;;-1.78;90.12;99926.35;102369;1313;74574;-76